createdAt,value
2018-06-18T00:01:47.688Z,14.79
2018-06-18T00:04:14.602Z,14.82
2018-06-18T00:06:41.532Z,14.80
2018-06-18T00:09:11.412Z,14.79
2018-06-18T00:11:38.309Z,14.78
2018-06-18T00:14:05.237Z,14.83
2018-06-18T00:16:32.145Z,14.78
2018-06-18T00:18:59.077Z,14.79
2018-06-18T00:21:26.002Z,14.71
2018-06-18T00:23:52.924Z,14.73
2018-06-18T00:26:19.831Z,14.67
2018-06-18T00:28:46.734Z,14.70
2018-06-18T00:31:13.636Z,14.68
2018-06-18T00:33:40.536Z,14.64
2018-06-18T00:36:07.437Z,14.60
2018-06-18T00:38:34.347Z,14.61
2018-06-18T00:41:01.282Z,14.59
2018-06-18T00:43:28.208Z,14.58
2018-06-18T00:45:55.108Z,14.61
2018-06-18T00:48:22.016Z,14.66
2018-06-18T00:50:48.936Z,14.71
2018-06-18T00:53:15.845Z,14.63
2018-06-18T00:55:54.440Z,14.61
2018-06-18T00:58:21.312Z,14.58
2018-06-18T01:00:48.212Z,14.61
2018-06-18T01:03:15.133Z,14.65
2018-06-18T01:05:42.035Z,14.49
2018-06-18T01:08:08.929Z,14.59
2018-06-18T01:10:35.832Z,14.65
2018-06-18T01:13:02.797Z,14.61
2018-06-18T01:15:29.712Z,14.52
2018-06-18T01:17:56.609Z,14.54
2018-06-18T01:20:23.605Z,14.59
2018-06-18T01:23:14.514Z,14.54
2018-06-18T01:25:41.441Z,14.48
2018-06-18T01:28:08.329Z,14.42
2018-06-18T01:30:35.785Z,14.36
2018-06-18T01:33:02.680Z,14.29
2018-06-18T01:35:29.681Z,14.27
2018-06-18T01:37:56.567Z,14.22
2018-06-18T01:40:23.588Z,14.29
2018-06-18T01:42:50.480Z,14.25
2018-06-18T01:45:17.381Z,14.21
2018-06-18T01:47:44.284Z,14.15
2018-06-18T01:50:11.189Z,14.15
2018-06-18T01:52:38.096Z,14.14
2018-06-18T01:55:05.025Z,14.12
2018-06-18T01:57:31.920Z,14.21
2018-06-18T01:59:58.821Z,14.22
2018-06-18T02:02:25.713Z,14.26
2018-06-18T02:04:52.614Z,14.32
2018-06-18T02:07:19.504Z,14.28
2018-06-18T02:09:46.408Z,14.24
2018-06-18T02:12:13.301Z,14.24
2018-06-18T02:14:40.216Z,14.31
2018-06-18T02:17:07.104Z,14.29
2018-06-18T02:19:33.997Z,14.28
2018-06-18T02:22:00.916Z,14.26
2018-06-18T02:24:27.813Z,14.26
2018-06-18T02:27:00.394Z,14.26
2018-06-18T02:30:34.704Z,14.27
2018-06-18T02:33:07.426Z,14.26
2018-06-18T02:35:40.112Z,14.26
2018-06-18T02:38:12.800Z,14.27
2018-06-18T02:40:45.950Z,14.27
2018-06-18T02:43:14.020Z,14.23
2018-06-18T02:45:40.969Z,14.29
2018-06-18T02:48:07.852Z,14.26
2018-06-18T02:50:34.773Z,14.23
2018-06-18T02:53:01.685Z,14.22
2018-06-18T02:55:28.617Z,14.16
2018-06-18T02:57:55.553Z,14.14
2018-06-18T03:00:22.644Z,14.19
2018-06-18T03:02:49.581Z,14.14
2018-06-18T03:05:16.493Z,14.13
2018-06-18T03:07:43.406Z,14.11
2018-06-18T03:10:10.317Z,14.02
2018-06-18T03:12:37.237Z,14.01
2018-06-18T03:15:04.183Z,13.97
2018-06-18T03:17:31.103Z,13.95
2018-06-18T03:20:03.881Z,13.92
2018-06-18T03:22:36.509Z,13.94
2018-06-18T03:25:09.265Z,13.89
2018-06-18T03:27:42.013Z,13.93
2018-06-18T03:30:08.970Z,14.00
2018-06-18T03:32:35.888Z,13.96
2018-06-18T03:35:02.837Z,13.94
2018-06-18T03:37:29.753Z,14.06
2018-06-18T03:39:56.669Z,14.10
2018-06-18T03:42:23.583Z,14.15
2018-06-18T03:44:59.884Z,14.28
2018-06-18T03:47:28.586Z,14.28
2018-06-18T03:49:55.497Z,14.38
2018-06-18T03:52:22.442Z,14.41
2018-06-18T03:54:51.166Z,14.36
2018-06-18T03:57:18.570Z,14.29
2018-06-18T03:59:45.534Z,14.26
2018-06-18T04:02:29.850Z,14.28
2018-06-18T04:05:02.477Z,14.28
2018-06-18T04:07:39.951Z,14.38
2018-06-18T04:10:12.545Z,14.39
2018-06-18T04:12:39.512Z,14.52
2018-06-18T04:15:06.461Z,14.55
2018-06-18T04:17:33.414Z,14.56
2018-06-18T04:20:00.329Z,14.53
2018-06-18T04:22:27.277Z,14.64
2018-06-18T04:24:54.218Z,14.67
2018-06-18T04:27:21.153Z,14.62
2018-06-18T04:29:48.118Z,14.54
2018-06-18T04:32:15.051Z,14.58
2018-06-18T04:34:46.958Z,14.63
2018-06-18T04:37:13.910Z,14.66
2018-06-18T04:39:40.841Z,14.75
2018-06-18T04:42:13.536Z,14.75
2018-06-18T04:44:46.344Z,14.80
2018-06-18T04:47:19.096Z,14.86
2018-06-18T04:49:51.873Z,14.93
2018-06-18T04:52:18.838Z,14.95
2018-06-18T04:54:45.748Z,15.06
2018-06-18T04:57:12.683Z,15.10
2018-06-18T04:59:43.409Z,15.10
2018-06-18T05:02:10.345Z,15.18
2018-06-18T05:04:37.291Z,15.35
2018-06-18T05:07:04.337Z,15.40
2018-06-18T05:09:48.373Z,15.44
2018-06-18T05:12:15.305Z,15.45
2018-06-18T05:14:42.240Z,15.49
2018-06-18T05:17:09.177Z,15.47
2018-06-18T05:19:36.101Z,15.57
2018-06-18T05:22:03.039Z,15.60
2018-06-18T05:24:30.253Z,15.68
2018-06-18T05:26:58.013Z,15.65
2018-06-18T05:29:25.800Z,15.78
2018-06-18T05:31:59.554Z,15.81
2018-06-18T05:34:28.789Z,15.64
2018-06-18T05:36:58.025Z,15.67
2018-06-18T05:39:24.973Z,15.76
2018-06-18T05:41:51.909Z,15.98
2018-06-18T05:44:18.846Z,16.02
2018-06-18T05:46:45.765Z,15.86
2018-06-18T05:49:12.729Z,15.80
2018-06-18T05:51:39.654Z,15.73
2018-06-18T05:54:06.599Z,15.79
2018-06-18T05:56:33.524Z,15.88
2018-06-18T05:59:00.450Z,16.02
2018-06-18T06:01:27.374Z,15.96
2018-06-18T06:03:54.785Z,16.10
2018-06-18T06:06:21.733Z,16.16
2018-06-18T06:08:48.660Z,16.27
2018-06-18T06:11:15.614Z,16.21
2018-06-18T06:13:42.537Z,16.57
2018-06-18T06:16:09.470Z,16.78
2018-06-18T06:18:36.394Z,16.78
2018-06-18T06:21:06.192Z,17.05
2018-06-18T06:23:33.114Z,17.06
2018-06-18T06:26:00.040Z,17.23
2018-06-18T06:28:26.981Z,17.38
2018-06-18T06:30:54.142Z,17.46
2018-06-18T06:33:22.250Z,17.62
2018-06-18T06:35:49.186Z,17.54
2018-06-18T06:38:16.109Z,17.82
2018-06-18T06:40:43.522Z,18.08
2018-06-18T06:43:10.668Z,18.42
2018-06-18T06:45:37.597Z,18.63
2018-06-18T06:48:04.593Z,18.55
2018-06-18T06:50:31.529Z,18.27
2018-06-18T06:52:58.569Z,17.99
2018-06-18T06:55:25.496Z,17.91
2018-06-18T06:57:52.434Z,17.84
2018-06-18T07:00:19.362Z,17.75
2018-06-18T07:02:46.279Z,17.57
2018-06-18T07:05:13.209Z,17.74
2018-06-18T07:07:40.145Z,18.01
2018-06-18T07:10:07.255Z,17.96
2018-06-18T07:12:34.177Z,18.06
2018-06-18T07:15:01.108Z,18.01
2018-06-18T07:17:28.054Z,17.93
2018-06-18T07:19:54.972Z,18.03
2018-06-18T07:22:21.889Z,17.87
2018-06-18T07:24:48.818Z,18.00
2018-06-18T07:27:15.773Z,17.85
2018-06-18T07:29:42.721Z,17.86
2018-06-18T07:32:09.658Z,17.97
2018-06-18T07:34:36.585Z,18.27
2018-06-18T07:37:03.522Z,18.41
2018-06-18T07:39:30.485Z,18.85
2018-06-18T07:41:57.414Z,18.89
2018-06-18T07:44:24.334Z,18.71
2018-06-18T07:46:51.269Z,18.69
2018-06-18T07:49:18.193Z,18.61
2018-06-18T07:51:45.300Z,18.76
2018-06-18T07:54:12.069Z,18.62
2018-06-18T07:56:38.992Z,18.95
2018-06-18T07:59:05.923Z,18.72
2018-06-18T08:01:32.861Z,19.35
2018-06-18T08:03:59.803Z,19.70
2018-06-18T08:06:27.018Z,19.47
2018-06-18T08:08:53.980Z,19.85
2018-06-18T08:11:20.928Z,20.07
2018-06-18T08:13:47.835Z,20.26
2018-06-18T08:16:14.824Z,20.36
2018-06-18T08:18:41.793Z,20.01
2018-06-18T08:21:08.737Z,20.75
2018-06-18T08:23:35.657Z,21.05
2018-06-18T08:26:02.597Z,21.03
2018-06-18T08:28:29.521Z,21.26
2018-06-18T08:30:56.456Z,20.73
2018-06-18T08:33:23.377Z,20.98
2018-06-18T08:35:50.311Z,21.38
2018-06-18T08:38:17.248Z,20.89
2018-06-18T08:40:44.189Z,21.36
2018-06-18T08:43:11.115Z,21.73
2018-06-18T08:45:38.054Z,22.28
2018-06-18T08:48:04.996Z,21.51
2018-06-18T08:50:37.732Z,20.59
2018-06-18T08:53:10.359Z,20.55
2018-06-18T08:55:43.117Z,20.81
2018-06-18T08:58:15.744Z,20.89
2018-06-18T09:00:48.512Z,20.38
2018-06-18T09:03:21.177Z,20.17
2018-06-18T09:05:48.251Z,20.14
2018-06-18T09:08:21.049Z,20.06
2018-06-18T09:10:47.960Z,19.92
2018-06-18T09:13:14.897Z,20.03
2018-06-18T09:15:41.820Z,20.57
2018-06-18T09:18:08.763Z,20.34
2018-06-18T09:20:35.689Z,20.11
2018-06-18T09:23:02.657Z,19.79
2018-06-18T09:25:29.589Z,19.66
2018-06-18T09:27:56.523Z,19.77
2018-06-18T09:30:23.470Z,20.04
2018-06-18T09:32:50.413Z,19.70
2018-06-18T09:35:17.366Z,19.52
2018-06-18T09:37:44.297Z,19.77
2018-06-18T09:40:11.233Z,20.25
2018-06-18T09:42:38.165Z,20.47
2018-06-18T09:45:05.101Z,20.35
2018-06-18T09:47:32.030Z,19.96
2018-06-18T09:50:04.644Z,19.68
2018-06-18T09:52:37.357Z,19.51
2018-06-18T09:55:10.033Z,19.36
2018-06-18T09:57:42.765Z,19.24
2018-06-18T10:00:21.441Z,19.00
2018-06-18T10:02:48.386Z,19.01
2018-06-18T10:05:19.906Z,18.86
2018-06-18T10:07:46.845Z,18.70
2018-06-18T10:10:13.775Z,18.65
2018-06-18T10:12:40.696Z,18.51
2018-06-18T10:15:07.625Z,18.50
2018-06-18T10:17:34.549Z,18.66
2018-06-18T10:20:01.490Z,19.03
2018-06-18T10:22:28.421Z,19.21
2018-06-18T10:24:55.352Z,19.53
2018-06-18T10:27:22.286Z,19.53
2018-06-18T10:29:49.212Z,20.09
2018-06-18T10:32:21.880Z,20.20
2018-06-18T10:34:54.578Z,20.55
2018-06-18T10:37:27.361Z,20.07
2018-06-18T10:40:00.057Z,19.76
2018-06-18T10:42:32.722Z,19.44
2018-06-18T10:44:59.682Z,19.32
2018-06-18T10:47:26.601Z,19.23
2018-06-18T10:49:53.843Z,19.12
2018-06-18T10:52:20.788Z,19.32
2018-06-18T10:54:47.721Z,19.09
2018-06-18T10:57:14.634Z,19.09
2018-06-18T10:59:41.569Z,19.12
2018-06-18T11:02:08.511Z,19.10
2018-06-18T11:04:35.438Z,19.13
2018-06-18T11:07:02.350Z,19.32
2018-06-18T11:09:29.289Z,19.35
2018-06-18T11:11:56.213Z,19.28
2018-06-18T11:14:23.138Z,19.40
2018-06-18T11:16:55.891Z,19.17
2018-06-18T11:19:28.505Z,18.97
2018-06-18T11:22:01.236Z,19.19
2018-06-18T11:24:34.038Z,19.22
2018-06-18T11:27:00.970Z,19.51
2018-06-18T11:29:27.918Z,19.56
2018-06-18T11:31:54.850Z,19.32
2018-06-18T11:34:21.805Z,19.67
2018-06-18T11:36:48.804Z,19.50
2018-06-18T11:39:15.769Z,19.11
2018-06-18T11:41:42.683Z,18.93
2018-06-18T11:44:09.613Z,19.08
2018-06-18T11:46:36.541Z,19.40
2018-06-18T11:49:03.525Z,19.27
2018-06-18T11:51:30.479Z,19.33
2018-06-18T11:53:57.396Z,19.44
2018-06-18T11:56:24.366Z,19.16
2018-06-18T11:58:56.986Z,19.14
2018-06-18T12:01:29.717Z,19.07
2018-06-18T12:04:02.396Z,19.04
2018-06-18T12:06:35.132Z,18.69
2018-06-18T12:09:07.853Z,18.75
2018-06-18T12:11:34.806Z,18.43
2018-06-18T12:14:01.797Z,18.58
2018-06-18T12:16:33.305Z,18.79
2018-06-18T12:19:00.266Z,18.85
2018-06-18T12:21:27.191Z,19.05
2018-06-18T12:23:54.129Z,19.06
2018-06-18T12:26:21.083Z,18.83
2018-06-18T12:28:47.989Z,18.51
2018-06-18T12:31:14.925Z,18.44
2018-06-18T12:33:41.838Z,18.43
2018-06-18T12:36:09.091Z,18.53
2018-06-18T12:38:36.013Z,18.74
2018-06-18T12:41:03.025Z,19.26
2018-06-18T12:43:33.448Z,19.24
2018-06-18T12:46:06.038Z,19.37
2018-06-18T12:48:38.725Z,19.80
2018-06-18T12:51:11.299Z,19.59
2018-06-18T12:53:43.987Z,19.30
2018-06-18T12:56:16.641Z,19.85
2018-06-18T12:58:43.561Z,19.72
2018-06-18T13:01:12.311Z,19.83
2018-06-18T13:03:39.233Z,20.16
2018-06-18T13:06:06.174Z,20.19
2018-06-18T13:08:33.104Z,19.86
2018-06-18T13:11:00.034Z,19.84
2018-06-18T13:13:26.964Z,19.99
2018-06-18T13:15:53.896Z,20.18
2018-06-18T13:18:20.855Z,20.20
2018-06-18T13:20:47.778Z,20.38
2018-06-18T13:23:14.699Z,19.93
2018-06-18T13:25:41.613Z,19.88
2018-06-18T13:28:14.436Z,20.02
2018-06-18T13:30:41.381Z,19.93
2018-06-18T13:33:08.308Z,19.67
2018-06-18T13:35:35.233Z,19.55
2018-06-18T13:38:07.842Z,19.48
2018-06-18T13:40:40.509Z,19.31
2018-06-18T13:43:13.330Z,19.11
2018-06-18T13:45:42.789Z,19.32
2018-06-18T13:48:15.641Z,19.47
2018-06-18T13:50:42.579Z,19.38
2018-06-18T13:53:09.544Z,19.29
2018-06-18T13:55:36.469Z,19.38
2018-06-18T13:58:03.414Z,19.38
2018-06-18T14:00:30.336Z,19.01
2018-06-18T14:02:57.267Z,18.82
2018-06-18T14:05:24.185Z,18.88
2018-06-18T14:07:51.125Z,19.12
2018-06-18T14:10:18.058Z,18.79
2018-06-18T14:12:44.993Z,18.91
2018-06-18T14:15:11.921Z,19.05
2018-06-18T14:17:38.850Z,19.00
2018-06-18T14:20:11.539Z,18.91
2018-06-18T14:22:38.469Z,18.82
2018-06-18T14:25:05.416Z,18.89
2018-06-18T14:27:32.350Z,19.12
2018-06-18T14:30:04.936Z,18.89
2018-06-18T14:32:37.637Z,18.89
2018-06-18T14:35:10.392Z,18.91
2018-06-18T14:37:43.054Z,18.87
2018-06-18T14:40:13.632Z,18.77
2018-06-18T14:42:40.626Z,18.88
2018-06-18T14:45:07.503Z,18.99
2018-06-18T14:47:34.480Z,19.06
2018-06-18T14:50:01.397Z,19.17
2018-06-18T14:52:28.600Z,19.13
2018-06-18T14:54:55.493Z,19.32
2018-06-18T14:57:22.597Z,19.42
2018-06-18T14:59:52.204Z,19.27
2018-06-18T15:02:19.113Z,19.28
2018-06-18T15:04:46.038Z,19.40
2018-06-18T15:07:12.986Z,19.64
2018-06-18T15:09:39.940Z,19.69
2018-06-18T15:12:07.473Z,19.69
2018-06-18T15:14:34.424Z,19.62
2018-06-18T15:17:01.338Z,19.76
2018-06-18T15:19:28.268Z,19.72
2018-06-18T15:21:56.897Z,19.85
2018-06-18T15:24:33.349Z,19.99
2018-06-18T15:27:00.343Z,20.25
2018-06-18T15:29:27.214Z,20.36
2018-06-18T15:31:54.143Z,20.48
2018-06-18T15:34:21.094Z,20.60
2018-06-18T15:36:48.022Z,20.91
2018-06-18T15:39:14.964Z,20.76
2018-06-18T15:41:41.904Z,20.55
2018-06-18T15:44:09.028Z,20.54
2018-06-18T15:46:36.013Z,20.34
2018-06-18T15:49:02.961Z,20.08
2018-06-18T15:51:29.893Z,19.93
2018-06-18T15:53:56.878Z,19.87
2018-06-18T15:56:23.864Z,19.95
2018-06-18T15:58:50.767Z,19.52
2018-06-18T16:01:17.710Z,19.21
2018-06-18T16:03:44.661Z,19.19
2018-06-18T16:06:11.597Z,19.16
2018-06-18T16:08:38.529Z,18.19
2018-06-18T16:11:05.489Z,17.62
2018-06-18T16:13:32.488Z,17.36
2018-06-18T16:15:59.406Z,17.41
2018-06-18T16:18:26.335Z,17.21
2018-06-18T16:20:53.245Z,17.27
2018-06-18T16:23:20.198Z,17.02
2018-06-18T16:25:47.142Z,17.04
2018-06-18T16:28:14.090Z,17.02
2018-06-18T16:30:41.037Z,17.09
2018-06-18T16:33:07.976Z,17.06
2018-06-18T16:35:34.941Z,17.40
2018-06-18T16:38:01.859Z,17.46
2018-06-18T16:40:28.809Z,17.46
2018-06-18T16:42:55.741Z,17.42
2018-06-18T16:45:22.693Z,17.50
2018-06-18T16:47:49.613Z,17.55
2018-06-18T16:50:16.538Z,17.57
2018-06-18T16:52:43.462Z,17.57
2018-06-18T16:55:10.425Z,17.47
2018-06-18T16:57:37.369Z,17.51
2018-06-18T17:00:04.470Z,17.71
2018-06-18T17:02:31.409Z,17.74
2018-06-18T17:04:58.349Z,17.82
2018-06-18T17:07:25.266Z,17.87
2018-06-18T17:09:52.215Z,17.60
2018-06-18T17:12:19.169Z,17.43
2018-06-18T17:14:46.168Z,17.47
2018-06-18T17:17:13.116Z,17.56
2018-06-18T17:19:40.045Z,17.53
2018-06-18T17:22:07.082Z,17.48
2018-06-18T17:24:34.102Z,17.54
2018-06-18T17:27:01.100Z,17.51
2018-06-18T17:29:28.033Z,17.57
2018-06-18T17:31:55.065Z,17.53
2018-06-18T17:34:22.009Z,17.47
2018-06-18T17:36:48.958Z,17.51
2018-06-18T17:39:15.892Z,17.33
2018-06-18T17:41:49.674Z,17.43
2018-06-18T17:44:16.618Z,17.46
2018-06-18T17:46:43.640Z,17.43
2018-06-18T17:49:10.603Z,17.46
2018-06-18T17:51:37.882Z,17.44
2018-06-18T17:54:04.901Z,17.55
2018-06-18T17:56:31.845Z,17.56
2018-06-18T17:58:58.765Z,17.57
2018-06-18T18:01:25.761Z,17.58
2018-06-18T18:03:52.740Z,17.56
2018-06-18T18:06:19.690Z,17.63
2018-06-18T18:08:46.822Z,17.57
2018-06-18T18:11:13.786Z,17.55
2018-06-18T18:13:40.724Z,17.57
2018-06-18T18:16:07.656Z,17.59
2018-06-18T18:18:34.561Z,17.61
2018-06-18T18:21:01.495Z,17.52
2018-06-18T18:23:28.432Z,17.49
2018-06-18T18:25:55.376Z,17.51
2018-06-18T18:28:22.633Z,17.54
2018-06-18T18:30:49.718Z,17.52
2018-06-18T18:33:16.687Z,17.58
2018-06-18T18:35:44.654Z,17.52
2018-06-18T18:38:11.596Z,17.54
2018-06-18T18:40:38.754Z,17.41
2018-06-18T18:43:07.753Z,17.44
2018-06-18T18:45:34.858Z,17.50
2018-06-18T18:48:01.701Z,17.37
2018-06-18T18:50:28.629Z,17.41
2018-06-18T18:52:55.587Z,17.34
2018-06-18T18:55:36.535Z,17.22
2018-06-18T18:58:16.565Z,17.22
2018-06-18T19:00:44.767Z,17.25
2018-06-18T19:03:11.836Z,17.18
2018-06-18T19:05:38.809Z,17.22
2018-06-18T19:08:06.361Z,17.18
2018-06-18T19:10:35.388Z,17.16
2018-06-18T19:13:05.005Z,17.18
2018-06-18T19:15:31.936Z,17.14
2018-06-18T19:17:58.877Z,17.04
2018-06-18T19:20:33.198Z,16.99
2018-06-18T19:23:01.864Z,16.96
2018-06-18T19:25:28.798Z,16.90
2018-06-18T19:27:55.741Z,16.92
2018-06-18T19:30:22.744Z,16.89
2018-06-18T19:32:51.410Z,16.79
2018-06-18T19:35:18.345Z,16.74
2018-06-18T19:37:45.274Z,16.66
2018-06-18T19:40:12.193Z,16.72
2018-06-18T19:42:39.138Z,16.68
2018-06-18T19:45:08.857Z,16.79
2018-06-18T19:47:40.774Z,16.68
2018-06-18T19:50:07.713Z,16.78
2018-06-18T19:52:34.660Z,16.67
2018-06-18T19:55:34.262Z,16.65
2018-06-18T19:58:01.236Z,16.62
2018-06-18T20:00:35.776Z,16.58
2018-06-18T20:03:02.701Z,16.60
2018-06-18T20:05:29.633Z,16.50
2018-06-18T20:07:59.553Z,16.52
2018-06-18T20:10:26.532Z,16.55
2018-06-18T20:12:53.853Z,16.52
2018-06-18T20:15:20.785Z,16.44
2018-06-18T20:17:47.740Z,16.48
2018-06-18T20:20:15.171Z,16.44
2018-06-18T20:22:42.158Z,16.45
2018-06-18T20:25:09.108Z,16.50
2018-06-18T20:27:36.042Z,16.50
2018-06-18T20:30:05.494Z,16.54
2018-06-18T20:32:32.434Z,16.52
2018-06-18T20:34:59.382Z,16.41
2018-06-18T20:37:26.313Z,16.36
2018-06-18T20:39:53.693Z,16.41
2018-06-18T20:42:20.606Z,16.40
2018-06-18T20:44:47.551Z,16.37
2018-06-18T20:47:14.503Z,16.36
2018-06-18T20:49:41.416Z,16.32
2018-06-18T20:52:08.384Z,16.36
2018-06-18T20:54:35.333Z,16.35
2018-06-18T20:57:02.328Z,16.33
2018-06-18T20:59:29.198Z,16.36
2018-06-18T21:01:56.137Z,16.38
2018-06-18T21:04:23.059Z,16.41
2018-06-18T21:06:49.997Z,16.34
2018-06-18T21:09:16.916Z,16.38
2018-06-18T21:11:43.862Z,16.40
2018-06-18T21:14:11.053Z,16.40
2018-06-18T21:16:40.335Z,16.40
2018-06-18T21:19:07.332Z,16.43
2018-06-18T21:21:34.202Z,16.41
2018-06-18T21:24:01.131Z,16.37
2018-06-18T21:26:28.062Z,16.40
2018-06-18T21:28:54.980Z,16.35
2018-06-18T21:31:22.160Z,16.42
2018-06-18T21:33:49.065Z,16.38
2018-06-18T21:36:15.985Z,16.41
2018-06-18T21:38:42.911Z,16.39
2018-06-18T21:41:09.839Z,16.33
2018-06-18T21:43:36.756Z,16.42
2018-06-18T21:46:04.200Z,16.45
2018-06-18T21:48:31.129Z,16.51
2018-06-18T21:50:58.056Z,16.43
2018-06-18T21:53:24.996Z,16.47
2018-06-18T21:55:51.942Z,16.40
2018-06-18T21:58:18.871Z,16.34
2018-06-18T22:00:48.035Z,16.39
2018-06-18T22:03:15.029Z,16.34
2018-06-18T22:05:41.966Z,16.42
2018-06-18T22:08:11.239Z,16.37
2018-06-18T22:10:38.533Z,16.36
2018-06-18T22:13:05.518Z,16.36
2018-06-18T22:15:32.510Z,16.38
2018-06-18T22:17:59.485Z,16.31
2018-06-18T22:20:26.441Z,16.43
2018-06-18T22:22:53.449Z,16.33
2018-06-18T22:25:20.385Z,16.34
2018-06-18T22:27:48.274Z,16.28
2018-06-18T22:30:15.301Z,16.31
2018-06-18T22:32:42.217Z,16.31
2018-06-18T22:35:09.170Z,16.34
2018-06-18T22:37:36.108Z,16.34
2018-06-18T22:40:04.146Z,16.33
2018-06-18T22:42:31.285Z,16.35
2018-06-18T22:44:59.800Z,16.32
2018-06-18T22:47:26.728Z,16.26
2018-06-18T22:49:53.661Z,16.18
2018-06-18T22:52:20.605Z,16.23
2018-06-18T22:54:48.581Z,16.21
2018-06-18T22:57:16.461Z,16.14
2018-06-18T22:59:43.794Z,16.19
2018-06-18T23:02:11.737Z,16.09
2018-06-18T23:04:38.705Z,15.95
2018-06-18T23:07:06.400Z,15.97
2018-06-18T23:09:34.032Z,15.90
2018-06-18T23:12:00.978Z,15.91
2018-06-18T23:14:27.941Z,15.87
2018-06-18T23:16:54.920Z,15.86
2018-06-18T23:19:21.884Z,15.81
2018-06-18T23:21:48.817Z,15.75
2018-06-18T23:24:15.737Z,15.71
2018-06-18T23:26:42.694Z,15.67
2018-06-18T23:29:11.731Z,15.63
2018-06-18T23:31:38.701Z,15.60
2018-06-18T23:34:05.641Z,15.65
2018-06-18T23:36:32.586Z,15.74
2018-06-18T23:38:59.560Z,15.69
2018-06-18T23:41:28.105Z,15.67
2018-06-18T23:43:55.049Z,15.74
2018-06-18T23:46:21.996Z,15.73
2018-06-18T23:48:48.940Z,15.82
2018-06-18T23:51:15.978Z,15.76
2018-06-18T23:53:42.938Z,15.76
2018-06-18T23:56:09.909Z,15.64
2018-06-18T23:58:36.845Z,15.67
